Hawk — LAGF7 — position and weather

sailwx.info

Track history (hours):
 
Tides and Currents Weather Stations Pressure Air Temp Water Temp Dewpoint Dewpoint Depression Visibility Wind Speed Wind Dir Waves Ship Positions

Hawk

Last reported at 2017-Sep-14 00:37 UTC. Time now 2017-Sep-24 10:18 UTC.
Position S 30°43' E 032°01'.
Warning: this ship's position is 10 days out of date.

Length 223 m; draft 10 m.

Type: Cargo ship. MMSI: 259848000.

Date/timePositionNaut miles runAvg speedWind from/ knotsBaromVisibWave heightAir tempDewpointWater temp
2017-Sep-14 00:37S 30°43' E 032°01'1 8.3
2017-Sep-14 00:30S 30°44' E 031°60'85 7.6
2017-Sep-13 13:15S 31°43' E 030°47'2 7.3
2017-Sep-13 13:00S 31°44' E 030°46'4 7.8
2017-Sep-13 12:30S 31°47' E 030°42'10 7.5
2017-Sep-13 11:09S 31°54' E 030°33'1 8.2
2017-Sep-13 11:00S 31°54' E 030°32'4 8.3
2017-Sep-13 10:30S 31°57' E 030°29'4 8.0
2017-Sep-13 10:00S 31°59' E 030°25'8 8.1
2017-Sep-13 08:59S 32°05' E 030°17'35 4.0
2017-Sep-13 00:20S 32°28' E 029°47'3 7.7
2017-Sep-13 00:00S 32°26' E 029°49'4 7.7
2017-Sep-12 23:30S 32°24' E 029°53'4 7.8
2017-Sep-12 22:56S 32°21' E 029°57'3 7.6
2017-Sep-12 22:31S 32°19' E 029°60'4 7.6
2017-Sep-12 22:00S 32°17' E 030°03'4 7.7
2017-Sep-12 21:31S 32°14' E 030°07'4 7.7
2017-Sep-12 20:58S 32°11' E 030°10'4 7.6
2017-Sep-12 20:28S 32°09' E 030°14'5 7.6
2017-Sep-12 19:51S 32°06' E 030°18'3 7.4
2017-Sep-12 19:31S 32°04' E 030°20'9 7.3
2017-Sep-12 18:17S 31°58' E 030°28'2 7.2
2017-Sep-12 18:00S 31°57' E 030°30'6 7.2
2017-Sep-12 17:09S 31°53' E 030°36'2 7.2
2017-Sep-12 16:54S 31°52' E 030°37'6 7.1
2017-Sep-12 16:07S 31°49' E 030°42'1 7.1
2017-Sep-12 15:57S 31°48' E 030°44'3 6.6
2017-Sep-12 15:30S 31°46' E 030°46'4 6.6
2017-Sep-12 14:55S 31°44' E 030°50'3 6.8
2017-Sep-12 14:30S 31°42' E 030°52'4 7.0
2017-Sep-12 14:00S 31°39' E 030°55'3 7.1
2017-Sep-12 13:30S 31°37' E 030°58'4 7.4
2017-Sep-12 13:00S 31°35' E 031°02'4 8.3
2017-Sep-12 12:30S 31°32' E 031°05'4 8.5
2017-Sep-12 12:00S 31°29' E 031°09'4 8.2
2017-Sep-12 11:30S 31°26' E 031°13'4 7.9
2017-Sep-12 11:00S 31°24' E 031°16'4 7.8
2017-Sep-12 10:30S 31°21' E 031°20'4 7.8
2017-Sep-12 10:00S 31°19' E 031°23'5 7.9
2017-Sep-12 09:26S 31°16' E 031°28'4 8.5
2017-Sep-12 09:01S 31°14' E 031°31'4 8.3
2017-Sep-12 08:31S 31°12' E 031°35'4 7.9
2017-Sep-12 08:01S 31°09' E 031°38'4 7.8
2017-Sep-12 07:31S 31°07' E 031°42'3 6.8
2017-Sep-12 07:00S 31°04' E 031°45'4 5.8
2017-Sep-12 06:19S 31°01' E 031°48'2 5.8
2017-Sep-12 06:00S 31°00' E 031°49'3 6.4
2017-Sep-12 05:29S 30°58' E 031°52'3 5.5
2017-Sep-12 05:00S 30°56' E 031°50'510.5
2017-Sep-12 04:31S 30°59' E 031°45'510.8
2017-Sep-12 04:01S 31°02' E 031°41'611.0
2017-Sep-12 03:30S 31°06' E 031°35'510.8
2017-Sep-12 03:00S 31°09' E 031°30'510.4
2017-Sep-12 02:30S 31°12' E 031°25'510.2
2017-Sep-12 02:01S 31°16' E 031°21'6 9.8
2017-Sep-12 01:24S 31°19' E 031°16'4 9.6
2017-Sep-12 01:00S 31°22' E 031°12'5 9.6
2017-Sep-12 00:30S 31°25' E 031°08'5 9.6
2017-Sep-12 00:00S 31°28' E 031°03'510.0
2017-Sep-11 23:31S 31°31' E 030°59'5 9.8
2017-Sep-11 23:01S 31°34' E 030°55'5 9.5
2017-Sep-11 22:30S 31°37' E 030°50'5 9.8
2017-Sep-11 22:00S 31°40' E 030°46'4 8.9
2017-Sep-11 21:31S 31°43' E 030°42'4 8.8
2017-Sep-11 21:00S 31°46' E 030°38'5 9.1
2017-Sep-11 20:30S 31°48' E 030°33'4 8.6
2017-Sep-11 20:00S 31°51' E 030°29'4 8.3
2017-Sep-11 19:30S 31°54' E 030°26'4 8.1
2017-Sep-11 19:00S 31°56' E 030°22'140 4.3
2017-Sep-10 10:45S 30°04' E 032°00'2 7.9
2017-Sep-10 10:30S 30°02' E 032°00'4 8.7
2017-Sep-10 10:01S 29°58' E 031°60'5 9.0
2017-Sep-10 09:31S 29°54' E 031°60'4 8.9
2017-Sep-10 09:00S 29°49' E 031°59'5 9.6
2017-Sep-10 08:31S 29°44' E 031°59'5 9.5
2017-Sep-10 08:01S 29°40' E 031°59'4 8.4
2017-Sep-10 07:30S 29°35' E 031°59'4 8.0
2017-Sep-10 07:00S 29°31' E 031°60'5 8.1
2017-Sep-10 06:26S 29°28' E 032°03'  
Track history (hours):
 
Tides and Currents Weather Stations Pressure Air Temp Water Temp Dewpoint Dewpoint Depression Visibility Wind Speed Wind Dir Waves Ship Positions

Hawk

Last reported at 2017-Sep-14 00:37 UTC. Time now 2017-Sep-24 10:18 UTC.
Position S 30°43' E 032°01'.
Warning: this ship's position is 10 days out of date.

Length 223 m; draft 10 m.

Type: Cargo ship. MMSI: 259848000.

Date/timePositionNaut miles runAvg speedWind from/ knotsBaromVisibWave heightAir tempDewpointWater temp
2017-Sep-14 00:37S 30°43' E 032°01'1 8.3
2017-Sep-14 00:30S 30°44' E 031°60'85 7.6
2017-Sep-13 13:15S 31°43' E 030°47'2 7.3
2017-Sep-13 13:00S 31°44' E 030°46'4 7.8
2017-Sep-13 12:30S 31°47' E 030°42'10 7.5
2017-Sep-13 11:09S 31°54' E 030°33'1 8.2
2017-Sep-13 11:00S 31°54' E 030°32'4 8.3
2017-Sep-13 10:30S 31°57' E 030°29'4 8.0
2017-Sep-13 10:00S 31°59' E 030°25'8 8.1
2017-Sep-13 08:59S 32°05' E 030°17'35 4.0
2017-Sep-13 00:20S 32°28' E 029°47'3 7.7
2017-Sep-13 00:00S 32°26' E 029°49'4 7.7
2017-Sep-12 23:30S 32°24' E 029°53'4 7.8
2017-Sep-12 22:56S 32°21' E 029°57'3 7.6
2017-Sep-12 22:31S 32°19' E 029°60'4 7.6
2017-Sep-12 22:00S 32°17' E 030°03'4 7.7
2017-Sep-12 21:31S 32°14' E 030°07'4 7.7
2017-Sep-12 20:58S 32°11' E 030°10'4 7.6
2017-Sep-12 20:28S 32°09' E 030°14'5 7.6
2017-Sep-12 19:51S 32°06' E 030°18'3 7.4
2017-Sep-12 19:31S 32°04' E 030°20'9 7.3
2017-Sep-12 18:17S 31°58' E 030°28'2 7.2
2017-Sep-12 18:00S 31°57' E 030°30'6 7.2
2017-Sep-12 17:09S 31°53' E 030°36'2 7.2
2017-Sep-12 16:54S 31°52' E 030°37'6 7.1
2017-Sep-12 16:07S 31°49' E 030°42'1 7.1
2017-Sep-12 15:57S 31°48' E 030°44'3 6.6
2017-Sep-12 15:30S 31°46' E 030°46'4 6.6
2017-Sep-12 14:55S 31°44' E 030°50'3 6.8
2017-Sep-12 14:30S 31°42' E 030°52'4 7.0
2017-Sep-12 14:00S 31°39' E 030°55'3 7.1
2017-Sep-12 13:30S 31°37' E 030°58'4 7.4
2017-Sep-12 13:00S 31°35' E 031°02'4 8.3
2017-Sep-12 12:30S 31°32' E 031°05'4 8.5
2017-Sep-12 12:00S 31°29' E 031°09'4 8.2
2017-Sep-12 11:30S 31°26' E 031°13'4 7.9
2017-Sep-12 11:00S 31°24' E 031°16'4 7.8
2017-Sep-12 10:30S 31°21' E 031°20'4 7.8
2017-Sep-12 10:00S 31°19' E 031°23'5 7.9
2017-Sep-12 09:26S 31°16' E 031°28'4 8.5
2017-Sep-12 09:01S 31°14' E 031°31'4 8.3
2017-Sep-12 08:31S 31°12' E 031°35'4 7.9
2017-Sep-12 08:01S 31°09' E 031°38'4 7.8
2017-Sep-12 07:31S 31°07' E 031°42'3 6.8
2017-Sep-12 07:00S 31°04' E 031°45'4 5.8
2017-Sep-12 06:19S 31°01' E 031°48'2 5.8
2017-Sep-12 06:00S 31°00' E 031°49'3 6.4
2017-Sep-12 05:29S 30°58' E 031°52'3 5.5
2017-Sep-12 05:00S 30°56' E 031°50'510.5
2017-Sep-12 04:31S 30°59' E 031°45'510.8
2017-Sep-12 04:01S 31°02' E 031°41'611.0
2017-Sep-12 03:30S 31°06' E 031°35'510.8
2017-Sep-12 03:00S 31°09' E 031°30'510.4
2017-Sep-12 02:30S 31°12' E 031°25'510.2
2017-Sep-12 02:01S 31°16' E 031°21'6 9.8
2017-Sep-12 01:24S 31°19' E 031°16'4 9.6
2017-Sep-12 01:00S 31°22' E 031°12'5 9.6
2017-Sep-12 00:30S 31°25' E 031°08'5 9.6
2017-Sep-12 00:00S 31°28' E 031°03'510.0
2017-Sep-11 23:31S 31°31' E 030°59'5 9.8
2017-Sep-11 23:01S 31°34' E 030°55'5 9.5
2017-Sep-11 22:30S 31°37' E 030°50'5 9.8
2017-Sep-11 22:00S 31°40' E 030°46'4 8.9
2017-Sep-11 21:31S 31°43' E 030°42'4 8.8
2017-Sep-11 21:00S 31°46' E 030°38'5 9.1
2017-Sep-11 20:30S 31°48' E 030°33'4 8.6
2017-Sep-11 20:00S 31°51' E 030°29'4 8.3
2017-Sep-11 19:30S 31°54' E 030°26'4 8.1
2017-Sep-11 19:00S 31°56' E 030°22'140 4.3
2017-Sep-10 10:45S 30°04' E 032°00'2 7.9
2017-Sep-10 10:30S 30°02' E 032°00'4 8.7
2017-Sep-10 10:01S 29°58' E 031°60'5 9.0
2017-Sep-10 09:31S 29°54' E 031°60'4 8.9
2017-Sep-10 09:00S 29°49' E 031°59'5 9.6
2017-Sep-10 08:31S 29°44' E 031°59'5 9.5
2017-Sep-10 08:01S 29°40' E 031°59'4 8.4
2017-Sep-10 07:30S 29°35' E 031°59'4 8.0
2017-Sep-10 07:00S 29°31' E 031°60'5 8.1
2017-Sep-10 06:26S 29°28' E 032°03'  

Dump ship's entire track history